sensor_id;sensor_type;location;lat;lon;timestamp;temperature;humidity
43561;DHT22;32305;46.410;17.394;2023-02-13T00:00:22;20.40;31.80
43561;DHT22;32305;46.410;17.394;2023-02-13T00:02:50;20.40;31.80
43561;DHT22;32305;46.410;17.394;2023-02-13T00:05:18;20.40;31.80
43561;DHT22;32305;46.410;17.394;2023-02-13T00:07:45;20.40;31.80
43561;DHT22;32305;46.410;17.394;2023-02-13T00:10:12;20.40;31.80
43561;DHT22;32305;46.410;17.394;2023-02-13T00:12:40;20.40;31.90
43561;DHT22;32305;46.410;17.394;2023-02-13T00:15:07;20.40;31.80
43561;DHT22;32305;46.410;17.394;2023-02-13T00:17:35;20.40;31.90
43561;DHT22;32305;46.410;17.394;2023-02-13T00:20:03;20.30;31.80
43561;DHT22;32305;46.410;17.394;2023-02-13T00:22:34;20.40;31.90
43561;DHT22;32305;46.410;17.394;2023-02-13T00:25:03;20.30;31.80
43561;DHT22;32305;46.410;17.394;2023-02-13T00:27:30;20.30;31.80
43561;DHT22;32305;46.410;17.394;2023-02-13T00:29:57;20.30;31.80
43561;DHT22;32305;46.410;17.394;2023-02-13T00:32:24;20.30;31.90
43561;DHT22;32305;46.410;17.394;2023-02-13T00:34:52;20.30;31.80
43561;DHT22;32305;46.410;17.394;2023-02-13T00:37:19;20.30;31.90
43561;DHT22;32305;46.410;17.394;2023-02-13T00:39:46;20.30;31.90
43561;DHT22;32305;46.410;17.394;2023-02-13T00:42:13;20.30;31.90
43561;DHT22;32305;46.410;17.394;2023-02-13T00:44:40;20.30;31.90
43561;DHT22;32305;46.410;17.394;2023-02-13T00:47:07;20.30;31.90
43561;DHT22;32305;46.410;17.394;2023-02-13T00:49:34;20.30;31.90
43561;DHT22;32305;46.410;17.394;2023-02-13T00:52:01;20.30;31.90
43561;DHT22;32305;46.410;17.394;2023-02-13T00:54:28;20.30;31.90
43561;DHT22;32305;46.410;17.394;2023-02-13T00:56:55;20.30;31.90
43561;DHT22;32305;46.410;17.394;2023-02-13T00:59:22;20.20;31.90
43561;DHT22;32305;46.410;17.394;2023-02-13T01:01:49;20.30;31.90
43561;DHT22;32305;46.410;17.394;2023-02-13T01:04:17;20.20;31.90
43561;DHT22;32305;46.410;17.394;2023-02-13T01:06:44;20.30;31.90
43561;DHT22;32305;46.410;17.394;2023-02-13T01:09:11;20.20;31.90
43561;DHT22;32305;46.410;17.394;2023-02-13T01:11:38;20.20;31.90
43561;DHT22;32305;46.410;17.394;2023-02-13T01:14:05;20.20;31.90
43561;DHT22;32305;46.410;17.394;2023-02-13T01:16:32;20.20;31.90
43561;DHT22;32305;46.410;17.394;2023-02-13T01:18:59;20.20;31.90
43561;DHT22;32305;46.410;17.394;2023-02-13T01:21:26;20.20;31.90
43561;DHT22;32305;46.410;17.394;2023-02-13T01:23:53;20.20;31.90
43561;DHT22;32305;46.410;17.394;2023-02-13T01:26:22;20.20;31.90
43561;DHT22;32305;46.410;17.394;2023-02-13T01:28:53;20.20;32.00
43561;DHT22;32305;46.410;17.394;2023-02-13T01:31:21;20.20;32.00
43561;DHT22;32305;46.410;17.394;2023-02-13T01:33:48;20.20;32.00
43561;DHT22;32305;46.410;17.394;2023-02-13T01:36:15;20.20;32.00
43561;DHT22;32305;46.410;17.394;2023-02-13T01:38:42;20.10;31.90
43561;DHT22;32305;46.410;17.394;2023-02-13T01:41:10;20.20;32.00
43561;DHT22;32305;46.410;17.394;2023-02-13T01:43:50;20.20;32.00
43561;DHT22;32305;46.410;17.394;2023-02-13T01:46:23;20.20;32.00
43561;DHT22;32305;46.410;17.394;2023-02-13T01:48:54;20.20;32.00
43561;DHT22;32305;46.410;17.394;2023-02-13T01:51:23;20.10;31.90
43561;DHT22;32305;46.410;17.394;2023-02-13T01:54:01;20.10;31.90
43561;DHT22;32305;46.410;17.394;2023-02-13T01:56:41;20.10;31.90
43561;DHT22;32305;46.410;17.394;2023-02-13T01:59:12;20.10;31.90
43561;DHT22;32305;46.410;17.394;2023-02-13T02:01:41;20.10;31.90
43561;DHT22;32305;46.410;17.394;2023-02-13T02:04:14;20.10;31.90
43561;DHT22;32305;46.410;17.394;2023-02-13T02:06:47;20.10;31.90
43561;DHT22;32305;46.410;17.394;2023-02-13T02:09:19;20.10;31.90
43561;DHT22;32305;46.410;17.394;2023-02-13T02:12:03;20.10;32.00
43561;DHT22;32305;46.410;17.394;2023-02-13T02:14:32;20.10;32.00
43561;DHT22;32305;46.410;17.394;2023-02-13T02:16:59;20.10;32.00
43561;DHT22;32305;46.410;17.394;2023-02-13T02:34:47;20.00;31.90
43561;DHT22;32305;46.410;17.394;2023-02-13T02:37:43;20.00;31.90
43561;DHT22;32305;46.410;17.394;2023-02-13T02:40:32;20.00;31.90
43561;DHT22;32305;46.410;17.394;2023-02-13T02:43:43;20.00;31.90
43561;DHT22;32305;46.410;17.394;2023-02-13T02:46:26;20.00;31.90
43561;DHT22;32305;46.410;17.394;2023-02-13T02:49:04;20.00;31.90
43561;DHT22;32305;46.410;17.394;2023-02-13T02:52:15;20.00;31.90
43561;DHT22;32305;46.410;17.394;2023-02-13T02:54:51;20.00;32.00
43561;DHT22;32305;46.410;17.394;2023-02-13T02:57:41;20.00;32.00
43561;DHT22;32305;46.410;17.394;2023-02-13T03:00:31;20.00;32.60
43561;DHT22;32305;46.410;17.394;2023-02-13T03:03:23;20.00;32.00
43561;DHT22;32305;46.410;17.394;2023-02-13T03:06:26;20.00;32.00
43561;DHT22;32305;46.410;17.394;2023-02-13T03:08:57;20.00;32.00
43561;DHT22;32305;46.410;17.394;2023-02-13T03:11:53;19.90;31.90
43561;DHT22;32305;46.410;17.394;2023-02-13T03:14:41;19.90;31.90
43561;DHT22;32305;46.410;17.394;2023-02-13T03:17:12;19.90;31.90
43561;DHT22;32305;46.410;17.394;2023-02-13T03:20:17;19.90;32.00
43561;DHT22;32305;46.410;17.394;2023-02-13T03:23:13;19.90;32.00
43561;DHT22;32305;46.410;17.394;2023-02-13T03:29:10;19.90;32.00
43561;DHT22;32305;46.410;17.394;2023-02-13T03:32:09;19.90;31.90
43561;DHT22;32305;46.410;17.394;2023-02-13T03:34:41;19.90;32.00
43561;DHT22;32305;46.410;17.394;2023-02-13T03:37:36;19.90;32.00
43561;DHT22;32305;46.410;17.394;2023-02-13T03:40:33;19.90;32.00
43561;DHT22;32305;46.410;17.394;2023-02-13T03:43:12;19.90;32.00
43561;DHT22;32305;46.410;17.394;2023-02-13T03:45:44;19.90;32.00
43561;DHT22;32305;46.410;17.394;2023-02-13T03:48:24;19.90;31.90
43561;DHT22;32305;46.410;17.394;2023-02-13T03:51:19;19.90;32.00
43561;DHT22;32305;46.410;17.394;2023-02-13T03:53:50;19.90;31.90
43561;DHT22;32305;46.410;17.394;2023-02-13T03:56:21;19.90;31.90
43561;DHT22;32305;46.410;17.394;2023-02-13T03:59:17;19.90;31.90
43561;DHT22;32305;46.410;17.394;2023-02-13T04:02:09;19.90;31.90
43561;DHT22;32305;46.410;17.394;2023-02-13T04:04:50;19.90;31.90
43561;DHT22;32305;46.410;17.394;2023-02-13T04:07:20;19.90;31.90
43561;DHT22;32305;46.410;17.394;2023-02-13T04:10:02;19.90;31.90
43561;DHT22;32305;46.410;17.394;2023-02-13T04:15:39;19.90;31.90
43561;DHT22;32305;46.410;17.394;2023-02-13T04:18:29;19.90;31.90
43561;DHT22;32305;46.410;17.394;2023-02-13T04:21:05;19.90;31.90
43561;DHT22;32305;46.410;17.394;2023-02-13T04:23:33;19.90;31.90
43561;DHT22;32305;46.410;17.394;2023-02-13T04:26:06;19.90;31.80
43561;DHT22;32305;46.410;17.394;2023-02-13T04:28:34;19.90;31.90
43561;DHT22;32305;46.410;17.394;2023-02-13T04:31:01;19.90;31.90
43561;DHT22;32305;46.410;17.394;2023-02-13T04:33:29;19.80;31.80
43561;DHT22;32305;46.410;17.394;2023-02-13T04:35:56;19.80;31.80
43561;DHT22;32305;46.410;17.394;2023-02-13T04:38:23;19.80;31.80
43561;DHT22;32305;46.410;17.394;2023-02-13T04:40:50;19.80;31.80
43561;DHT22;32305;46.410;17.394;2023-02-13T04:43:17;19.80;31.80
43561;DHT22;32305;46.410;17.394;2023-02-13T04:45:48;19.80;31.80
43561;DHT22;32305;46.410;17.394;2023-02-13T04:48:15;19.80;31.80
43561;DHT22;32305;46.410;17.394;2023-02-13T04:50:42;19.80;31.80
43561;DHT22;32305;46.410;17.394;2023-02-13T04:53:09;19.80;31.80
43561;DHT22;32305;46.410;17.394;2023-02-13T04:55:36;19.80;31.80
43561;DHT22;32305;46.410;17.394;2023-02-13T04:58:03;19.80;31.80
43561;DHT22;32305;46.410;17.394;2023-02-13T05:00:30;19.80;31.80
43561;DHT22;32305;46.410;17.394;2023-02-13T05:03:05;19.80;31.80
43561;DHT22;32305;46.410;17.394;2023-02-13T05:05:33;19.80;31.80
43561;DHT22;32305;46.410;17.394;2023-02-13T05:08:01;19.80;31.80
43561;DHT22;32305;46.410;17.394;2023-02-13T05:10:28;19.80;31.80
43561;DHT22;32305;46.410;17.394;2023-02-13T05:12:55;19.80;31.80
43561;DHT22;32305;46.410;17.394;2023-02-13T05:15:22;19.70;31.80
43561;DHT22;32305;46.410;17.394;2023-02-13T05:17:50;19.70;31.80
43561;DHT22;32305;46.410;17.394;2023-02-13T05:20:17;19.70;31.80
43561;DHT22;32305;46.410;17.394;2023-02-13T05:22:50;19.80;31.80
43561;DHT22;32305;46.410;17.394;2023-02-13T05:25:39;19.70;31.70
43561;DHT22;32305;46.410;17.394;2023-02-13T05:28:06;19.70;31.70
43561;DHT22;32305;46.410;17.394;2023-02-13T05:30:53;19.70;31.70
43561;DHT22;32305;46.410;17.394;2023-02-13T05:33:21;19.70;31.70
43561;DHT22;32305;46.410;17.394;2023-02-13T05:35:48;19.70;31.70
43561;DHT22;32305;46.410;17.394;2023-02-13T05:38:15;19.70;31.60
43561;DHT22;32305;46.410;17.394;2023-02-13T05:40:42;19.70;31.40
43561;DHT22;32305;46.410;17.394;2023-02-13T05:43:09;19.70;31.40
43561;DHT22;32305;46.410;17.394;2023-02-13T05:45:36;19.60;31.30
43561;DHT22;32305;46.410;17.394;2023-02-13T05:48:03;19.70;31.40
43561;DHT22;32305;46.410;17.394;2023-02-13T05:50:30;19.60;31.30
43561;DHT22;32305;46.410;17.394;2023-02-13T05:52:57;19.60;31.30
43561;DHT22;32305;46.410;17.394;2023-02-13T05:55:26;19.60;31.30
43561;DHT22;32305;46.410;17.394;2023-02-13T05:57:55;19.60;31.30
43561;DHT22;32305;46.410;17.394;2023-02-13T06:00:23;19.60;31.30
43561;DHT22;32305;46.410;17.394;2023-02-13T06:02:50;19.60;31.30
43561;DHT22;32305;46.410;17.394;2023-02-13T06:05:18;19.60;31.20
43561;DHT22;32305;46.410;17.394;2023-02-13T06:07:45;19.60;31.20
43561;DHT22;32305;46.410;17.394;2023-02-13T06:10:12;19.60;31.10
43561;DHT22;32305;46.410;17.394;2023-02-13T06:12:39;19.70;31.10
43561;DHT22;32305;46.410;17.394;2023-02-13T06:15:06;19.70;31.00
43561;DHT22;32305;46.410;17.394;2023-02-13T06:17:33;19.70;30.90
43561;DHT22;32305;46.410;17.394;2023-02-13T06:20:00;19.80;31.00
43561;DHT22;32305;46.410;17.394;2023-02-13T06:22:28;19.80;31.00
43561;DHT22;32305;46.410;17.394;2023-02-13T06:24:55;19.80;31.00
43561;DHT22;32305;46.410;17.394;2023-02-13T06:27:22;19.90;31.00
43561;DHT22;32305;46.410;17.394;2023-02-13T06:29:49;19.90;30.90
43561;DHT22;32305;46.410;17.394;2023-02-13T06:32:16;20.00;31.10
43561;DHT22;32305;46.410;17.394;2023-02-13T06:34:44;20.00;31.00
43561;DHT22;32305;46.410;17.394;2023-02-13T06:37:11;20.10;30.90
43561;DHT22;32305;46.410;17.394;2023-02-13T06:39:38;20.20;30.90
43561;DHT22;32305;46.410;17.394;2023-02-13T06:42:06;20.20;30.80
43561;DHT22;32305;46.410;17.394;2023-02-13T06:44:33;20.30;30.80
43561;DHT22;32305;46.410;17.394;2023-02-13T06:47:00;20.30;30.70
43561;DHT22;32305;46.410;17.394;2023-02-13T06:49:28;20.40;30.80
43561;DHT22;32305;46.410;17.394;2023-02-13T06:51:55;20.40;30.80
43561;DHT22;32305;46.410;17.394;2023-02-13T06:54:22;20.40;30.80
43561;DHT22;32305;46.410;17.394;2023-02-13T06:57:11;20.50;31.10
43561;DHT22;32305;46.410;17.394;2023-02-13T06:59:42;20.50;31.50
43561;DHT22;32305;46.410;17.394;2023-02-13T07:02:10;20.60;31.70
43561;DHT22;32305;46.410;17.394;2023-02-13T07:04:37;20.70;31.90
43561;DHT22;32305;46.410;17.394;2023-02-13T07:07:04;20.70;31.90
43561;DHT22;32305;46.410;17.394;2023-02-13T07:09:32;20.70;31.80
43561;DHT22;32305;46.410;17.394;2023-02-13T07:12:02;20.80;31.70
43561;DHT22;32305;46.410;17.394;2023-02-13T07:14:29;20.90;31.60
43561;DHT22;32305;46.410;17.394;2023-02-13T07:16:57;20.90;31.50
43561;DHT22;32305;46.410;17.394;2023-02-13T07:19:24;21.00;31.40
43561;DHT22;32305;46.410;17.394;2023-02-13T07:21:51;21.00;31.40
43561;DHT22;32305;46.410;17.394;2023-02-13T07:24:18;21.10;31.40
43561;DHT22;32305;46.410;17.394;2023-02-13T07:26:45;21.10;31.30
43561;DHT22;32305;46.410;17.394;2023-02-13T07:29:13;21.20;31.20
43561;DHT22;32305;46.410;17.394;2023-02-13T07:31:40;21.20;31.20
43561;DHT22;32305;46.410;17.394;2023-02-13T07:34:08;21.30;31.10
43561;DHT22;32305;46.410;17.394;2023-02-13T07:36:35;21.30;31.00
43561;DHT22;32305;46.410;17.394;2023-02-13T07:39:02;21.30;30.90
43561;DHT22;32305;46.410;17.394;2023-02-13T07:41:29;21.40;30.90
43561;DHT22;32305;46.410;17.394;2023-02-13T07:43:57;21.40;31.00
43561;DHT22;32305;46.410;17.394;2023-02-13T07:46:24;21.50;31.10
43561;DHT22;32305;46.410;17.394;2023-02-13T07:48:52;21.50;31.10
43561;DHT22;32305;46.410;17.394;2023-02-13T07:51:19;21.60;31.10
43561;DHT22;32305;46.410;17.394;2023-02-13T07:53:46;21.60;31.40
43561;DHT22;32305;46.410;17.394;2023-02-13T07:56:14;21.70;31.80
43561;DHT22;32305;46.410;17.394;2023-02-13T07:58:41;21.70;31.80
43561;DHT22;32305;46.410;17.394;2023-02-13T08:01:13;21.80;32.00
43561;DHT22;32305;46.410;17.394;2023-02-13T08:03:41;21.80;32.20
43561;DHT22;32305;46.410;17.394;2023-02-13T08:06:09;21.90;32.30
43561;DHT22;32305;46.410;17.394;2023-02-13T08:08:36;21.90;32.20
43561;DHT22;32305;46.410;17.394;2023-02-13T08:11:07;22.00;32.20
43561;DHT22;32305;46.410;17.394;2023-02-13T08:13:58;22.00;32.20
43561;DHT22;32305;46.410;17.394;2023-02-13T08:16:25;22.10;32.10
43561;DHT22;32305;46.410;17.394;2023-02-13T08:18:53;22.10;32.10
43561;DHT22;32305;46.410;17.394;2023-02-13T08:21:20;22.10;32.00
43561;DHT22;32305;46.410;17.394;2023-02-13T08:23:47;22.20;31.80
43561;DHT22;32305;46.410;17.394;2023-02-13T08:26:14;22.20;31.90
43561;DHT22;32305;46.410;17.394;2023-02-13T08:28:42;22.30;32.10
43561;DHT22;32305;46.410;17.394;2023-02-13T08:31:11;22.30;32.20
43561;DHT22;32305;46.410;17.394;2023-02-13T08:33:38;22.30;32.20
43561;DHT22;32305;46.410;17.394;2023-02-13T08:36:07;22.40;32.30
43561;DHT22;32305;46.410;17.394;2023-02-13T08:38:35;22.40;32.50
43561;DHT22;32305;46.410;17.394;2023-02-13T08:41:02;22.50;32.50
43561;DHT22;32305;46.410;17.394;2023-02-13T08:43:29;22.50;32.60
43561;DHT22;32305;46.410;17.394;2023-02-13T08:45:59;22.50;32.60
43561;DHT22;32305;46.410;17.394;2023-02-13T08:48:27;22.60;32.70
43561;DHT22;32305;46.410;17.394;2023-02-13T08:50:56;22.60;32.90
43561;DHT22;32305;46.410;17.394;2023-02-13T08:53:23;22.70;32.90
43561;DHT22;32305;46.410;17.394;2023-02-13T08:55:55;22.70;32.80
43561;DHT22;32305;46.410;17.394;2023-02-13T08:58:23;22.70;32.80
43561;DHT22;32305;46.410;17.394;2023-02-13T09:00:50;22.80;32.80
43561;DHT22;32305;46.410;17.394;2023-02-13T09:03:17;22.80;32.70
43561;DHT22;32305;46.410;17.394;2023-02-13T09:05:45;22.80;32.50
43561;DHT22;32305;46.410;17.394;2023-02-13T09:08:13;22.80;32.10
43561;DHT22;32305;46.410;17.394;2023-02-13T09:10:42;22.90;31.90
43561;DHT22;32305;46.410;17.394;2023-02-13T09:13:10;22.90;31.80
43561;DHT22;32305;46.410;17.394;2023-02-13T09:15:39;23.00;31.70
43561;DHT22;32305;46.410;17.394;2023-02-13T09:18:06;23.00;31.50
43561;DHT22;32305;46.410;17.394;2023-02-13T09:20:34;23.00;31.70
43561;DHT22;32305;46.410;17.394;2023-02-13T09:23:02;23.10;31.90
43561;DHT22;32305;46.410;17.394;2023-02-13T09:25:29;23.10;32.00
43561;DHT22;32305;46.410;17.394;2023-02-13T09:27:58;23.10;32.00
43561;DHT22;32305;46.410;17.394;2023-02-13T09:30:25;23.10;32.00
43561;DHT22;32305;46.410;17.394;2023-02-13T09:32:53;23.20;32.00
43561;DHT22;32305;46.410;17.394;2023-02-13T09:35:22;23.20;32.00
43561;DHT22;32305;46.410;17.394;2023-02-13T09:37:49;23.30;32.00
43561;DHT22;32305;46.410;17.394;2023-02-13T09:40:24;23.30;32.00
43561;DHT22;32305;46.410;17.394;2023-02-13T09:43:05;23.30;31.90
43561;DHT22;32305;46.410;17.394;2023-02-13T09:45:34;23.30;31.80
43561;DHT22;32305;46.410;17.394;2023-02-13T09:48:01;23.40;31.90
43561;DHT22;32305;46.410;17.394;2023-02-13T09:50:31;23.40;31.80
43561;DHT22;32305;46.410;17.394;2023-02-13T09:53:03;23.40;31.70
43561;DHT22;32305;46.410;17.394;2023-02-13T09:55:46;23.40;31.80
43561;DHT22;32305;46.410;17.394;2023-02-13T09:58:43;23.50;31.80
43561;DHT22;32305;46.410;17.394;2023-02-13T10:01:25;23.50;31.80
43561;DHT22;32305;46.410;17.394;2023-02-13T10:04:28;23.50;31.60
43561;DHT22;32305;46.410;17.394;2023-02-13T10:07:37;23.50;31.30
43561;DHT22;32305;46.410;17.394;2023-02-13T10:10:26;23.60;31.30
43561;DHT22;32305;46.410;17.394;2023-02-13T10:13:28;23.60;31.10
43561;DHT22;32305;46.410;17.394;2023-02-13T10:16:07;23.60;31.10
43561;DHT22;32305;46.410;17.394;2023-02-13T10:18:56;23.60;31.00
43561;DHT22;32305;46.410;17.394;2023-02-13T10:21:30;23.60;30.90
43561;DHT22;32305;46.410;17.394;2023-02-13T10:24:09;23.60;30.90
43561;DHT22;32305;46.410;17.394;2023-02-13T10:26:40;23.60;31.00
43561;DHT22;32305;46.410;17.394;2023-02-13T10:32:20;23.60;30.90
43561;DHT22;32305;46.410;17.394;2023-02-13T10:34:49;23.60;30.90
43561;DHT22;32305;46.410;17.394;2023-02-13T10:37:20;23.70;30.90
43561;DHT22;32305;46.410;17.394;2023-02-13T10:39:49;23.70;30.90
43561;DHT22;32305;46.410;17.394;2023-02-13T10:42:43;23.70;30.80
43561;DHT22;32305;46.410;17.394;2023-02-13T10:45:47;23.70;30.80
43561;DHT22;32305;46.410;17.394;2023-02-13T10:48:39;23.70;30.80
43561;DHT22;32305;46.410;17.394;2023-02-13T10:54:26;23.70;30.60
43561;DHT22;32305;46.410;17.394;2023-02-13T10:57:13;23.80;30.60
43561;DHT22;32305;46.410;17.394;2023-02-13T11:00:05;23.80;30.60
43561;DHT22;32305;46.410;17.394;2023-02-13T11:02:36;23.80;30.60
43561;DHT22;32305;46.410;17.394;2023-02-13T11:05:21;23.80;30.60
43561;DHT22;32305;46.410;17.394;2023-02-13T11:07:49;23.80;30.60
43561;DHT22;32305;46.410;17.394;2023-02-13T11:10:20;23.80;30.60
43561;DHT22;32305;46.410;17.394;2023-02-13T11:12:49;23.80;30.60
43561;DHT22;32305;46.410;17.394;2023-02-13T11:15:26;23.80;30.60
43561;DHT22;32305;46.410;17.394;2023-02-13T11:17:56;23.80;30.50
43561;DHT22;32305;46.410;17.394;2023-02-13T11:20:38;23.80;30.40
43561;DHT22;32305;46.410;17.394;2023-02-13T11:23:31;23.90;30.40
43561;DHT22;32305;46.410;17.394;2023-02-13T11:26:02;23.80;30.30
43561;DHT22;32305;46.410;17.394;2023-02-13T11:28:33;23.80;30.20
43561;DHT22;32305;46.410;17.394;2023-02-13T11:31:25;23.80;30.20
43561;DHT22;32305;46.410;17.394;2023-02-13T11:33:54;23.80;30.20
43561;DHT22;32305;46.410;17.394;2023-02-13T11:36:33;23.90;30.10
43561;DHT22;32305;46.410;17.394;2023-02-13T11:39:06;23.90;30.20
43561;DHT22;32305;46.410;17.394;2023-02-13T11:41:45;23.90;30.10
43561;DHT22;32305;46.410;17.394;2023-02-13T11:44:26;23.90;30.10
43561;DHT22;32305;46.410;17.394;2023-02-13T11:46:59;23.90;30.10
43561;DHT22;32305;46.410;17.394;2023-02-13T11:49:29;23.90;30.00
43561;DHT22;32305;46.410;17.394;2023-02-13T11:52:09;23.90;30.00
43561;DHT22;32305;46.410;17.394;2023-02-13T11:54:45;23.90;30.50
43561;DHT22;32305;46.410;17.394;2023-02-13T11:57:33;23.90;30.00
43561;DHT22;32305;46.410;17.394;2023-02-13T12:00:31;24.00;30.00
43561;DHT22;32305;46.410;17.394;2023-02-13T12:03:25;24.00;30.00
43561;DHT22;32305;46.410;17.394;2023-02-13T12:06:03;24.00;30.00
43561;DHT22;32305;46.410;17.394;2023-02-13T12:08:33;24.00;30.00
43561;DHT22;32305;46.410;17.394;2023-02-13T12:11:03;24.10;30.00
43561;DHT22;32305;46.410;17.394;2023-02-13T12:13:37;24.00;30.00
43561;DHT22;32305;46.410;17.394;2023-02-13T12:16:27;24.10;30.00
43561;DHT22;32305;46.410;17.394;2023-02-13T12:18:59;24.00;30.00
43561;DHT22;32305;46.410;17.394;2023-02-13T12:22:05;24.00;29.90
43561;DHT22;32305;46.410;17.394;2023-02-13T12:24:59;24.10;29.90
43561;DHT22;32305;46.410;17.394;2023-02-13T12:27:58;24.10;29.90
43561;DHT22;32305;46.410;17.394;2023-02-13T12:30:52;24.10;30.10
43561;DHT22;32305;46.410;17.394;2023-02-13T12:36:53;24.10;30.00
43561;DHT22;32305;46.410;17.394;2023-02-13T12:39:30;24.10;29.90
43561;DHT22;32305;46.410;17.394;2023-02-13T12:45:19;24.10;29.70
43561;DHT22;32305;46.410;17.394;2023-02-13T12:51:15;24.10;30.00
43561;DHT22;32305;46.410;17.394;2023-02-13T12:54:16;24.10;29.40
43561;DHT22;32305;46.410;17.394;2023-02-13T12:57:14;24.10;29.60
43561;DHT22;32305;46.410;17.394;2023-02-13T13:00:02;24.10;29.80
43561;DHT22;32305;46.410;17.394;2023-02-13T13:03:00;24.10;30.10
43561;DHT22;32305;46.410;17.394;2023-02-13T13:09:02;24.20;30.80
43561;DHT22;32305;46.410;17.394;2023-02-13T13:11:55;24.10;30.60
43561;DHT22;32305;46.410;17.394;2023-02-13T13:14:49;24.10;30.60
43561;DHT22;32305;46.410;17.394;2023-02-13T13:17:54;24.20;30.60
43561;DHT22;32305;46.410;17.394;2023-02-13T13:20:47;24.10;30.60
43561;DHT22;32305;46.410;17.394;2023-02-13T13:23:55;24.20;30.80
43561;DHT22;32305;46.410;17.394;2023-02-13T13:26:35;24.20;30.80
43561;DHT22;32305;46.410;17.394;2023-02-13T13:29:11;24.20;30.80
43561;DHT22;32305;46.410;17.394;2023-02-13T13:31:45;24.20;30.70
43561;DHT22;32305;46.410;17.394;2023-02-13T13:34:22;24.20;30.90
43561;DHT22;32305;46.410;17.394;2023-02-13T13:36:59;24.20;30.80
43561;DHT22;32305;46.410;17.394;2023-02-13T13:39:52;24.20;30.70
43561;DHT22;32305;46.410;17.394;2023-02-13T13:42:33;24.20;30.80
43561;DHT22;32305;46.410;17.394;2023-02-13T13:45:29;24.20;30.70
43561;DHT22;32305;46.410;17.394;2023-02-13T13:48:21;24.20;30.70
43561;DHT22;32305;46.410;17.394;2023-02-13T13:50:52;24.20;30.70
43561;DHT22;32305;46.410;17.394;2023-02-13T13:53:21;24.20;30.60
43561;DHT22;32305;46.410;17.394;2023-02-13T13:56:02;24.20;30.60
43561;DHT22;32305;46.410;17.394;2023-02-13T13:58:43;24.20;30.50
43561;DHT22;32305;46.410;17.394;2023-02-13T14:01:20;24.20;30.40
43561;DHT22;32305;46.410;17.394;2023-02-13T14:03:52;24.20;30.40
43561;DHT22;32305;46.410;17.394;2023-02-13T14:09:35;24.20;30.40
43561;DHT22;32305;46.410;17.394;2023-02-13T14:15:04;24.20;30.50
43561;DHT22;32305;46.410;17.394;2023-02-13T14:17:52;24.20;30.60
43561;DHT22;32305;46.410;17.394;2023-02-13T14:20:51;24.10;30.40
43561;DHT22;32305;46.410;17.394;2023-02-13T14:23:37;24.10;30.30
43561;DHT22;32305;46.410;17.394;2023-02-13T14:26:36;24.10;30.20
43561;DHT22;32305;46.410;17.394;2023-02-13T14:29:25;24.10;30.10
43561;DHT22;32305;46.410;17.394;2023-02-13T14:32:06;24.10;30.10
43561;DHT22;32305;46.410;17.394;2023-02-13T14:34:35;24.10;30.30
43561;DHT22;32305;46.410;17.394;2023-02-13T14:37:16;24.10;30.40
43561;DHT22;32305;46.410;17.394;2023-02-13T14:43:18;24.10;30.60
43561;DHT22;32305;46.410;17.394;2023-02-13T14:45:53;24.00;30.50
43561;DHT22;32305;46.410;17.394;2023-02-13T14:48:30;24.10;30.60
43561;DHT22;32305;46.410;17.394;2023-02-13T14:50:59;24.00;30.60
43561;DHT22;32305;46.410;17.394;2023-02-13T14:53:48;24.10;30.70
43561;DHT22;32305;46.410;17.394;2023-02-13T14:56:19;24.10;30.60
43561;DHT22;32305;46.410;17.394;2023-02-13T14:58:52;24.10;30.70
43561;DHT22;32305;46.410;17.394;2023-02-13T15:01:29;24.00;30.70
43561;DHT22;32305;46.410;17.394;2023-02-13T15:04:02;24.00;30.80
43561;DHT22;32305;46.410;17.394;2023-02-13T15:06:37;24.00;30.90
43561;DHT22;32305;46.410;17.394;2023-02-13T15:09:22;24.00;30.90
43561;DHT22;32305;46.410;17.394;2023-02-13T15:11:50;24.10;31.00
43561;DHT22;32305;46.410;17.394;2023-02-13T15:14:23;24.10;30.90
43561;DHT22;32305;46.410;17.394;2023-02-13T15:17:00;24.00;31.00
43561;DHT22;32305;46.410;17.394;2023-02-13T15:19:29;24.00;31.00
43561;DHT22;32305;46.410;17.394;2023-02-13T15:21:59;24.00;31.00
43561;DHT22;32305;46.410;17.394;2023-02-13T15:24:36;23.90;31.00
43561;DHT22;32305;46.410;17.394;2023-02-13T15:27:05;24.00;31.20
43561;DHT22;32305;46.410;17.394;2023-02-13T15:29:33;23.90;31.20
43561;DHT22;32305;46.410;17.394;2023-02-13T15:32:20;23.90;31.40
43561;DHT22;32305;46.410;17.394;2023-02-13T15:38:42;23.80;31.60
43561;DHT22;32305;46.410;17.394;2023-02-13T15:41:13;23.80;31.60
43561;DHT22;32305;46.410;17.394;2023-02-13T15:43:57;23.70;31.70
43561;DHT22;32305;46.410;17.394;2023-02-13T15:46:29;23.70;31.80
43561;DHT22;32305;46.410;17.394;2023-02-13T15:49:05;23.70;32.00
43561;DHT22;32305;46.410;17.394;2023-02-13T15:51:34;23.70;32.10
43561;DHT22;32305;46.410;17.394;2023-02-13T15:54:21;23.60;32.00
43561;DHT22;32305;46.410;17.394;2023-02-13T15:56:50;23.60;32.00
43561;DHT22;32305;46.410;17.394;2023-02-13T15:59:18;23.50;32.00
43561;DHT22;32305;46.410;17.394;2023-02-13T16:01:46;23.50;32.20
43561;DHT22;32305;46.410;17.394;2023-02-13T16:07:57;23.40;32.40
43561;DHT22;32305;46.410;17.394;2023-02-13T16:10:34;23.30;32.80
43561;DHT22;32305;46.410;17.394;2023-02-13T16:13:04;23.30;33.00
43561;DHT22;32305;46.410;17.394;2023-02-13T16:15:33;23.20;33.40
43561;DHT22;32305;46.410;17.394;2023-02-13T16:18:02;23.20;33.70
43561;DHT22;32305;46.410;17.394;2023-02-13T16:20:31;23.10;33.80
43561;DHT22;32305;46.410;17.394;2023-02-13T16:23:14;23.10;34.20
43561;DHT22;32305;46.410;17.394;2023-02-13T16:25:42;23.00;34.50
43561;DHT22;32305;46.410;17.394;2023-02-13T16:28:21;23.00;34.80
43561;DHT22;32305;46.410;17.394;2023-02-13T16:30:58;23.00;34.90
43561;DHT22;32305;46.410;17.394;2023-02-13T16:33:28;22.90;35.00
43561;DHT22;32305;46.410;17.394;2023-02-13T16:36:17;22.90;35.10
43561;DHT22;32305;46.410;17.394;2023-02-13T16:38:46;22.80;35.10
43561;DHT22;32305;46.410;17.394;2023-02-13T16:41:29;22.80;35.10
43561;DHT22;32305;46.410;17.394;2023-02-13T16:44:02;22.70;35.10
43561;DHT22;32305;46.410;17.394;2023-02-13T16:46:41;22.70;35.00
43561;DHT22;32305;46.410;17.394;2023-02-13T16:49:18;22.70;35.00
43561;DHT22;32305;46.410;17.394;2023-02-13T16:51:49;22.70;34.90
43561;DHT22;32305;46.410;17.394;2023-02-13T16:54:24;22.60;34.90
43561;DHT22;32305;46.410;17.394;2023-02-13T16:57:01;22.60;34.90
43561;DHT22;32305;46.410;17.394;2023-02-13T16:59:54;22.60;35.00